createdAt,value
2022-08-26T00:00:28.682Z,3.90
2022-08-26T00:01:33.278Z,3.60
2022-08-26T00:02:37.605Z,3.87
2022-08-26T00:03:41.339Z,3.80
2022-08-26T00:04:44.146Z,3.83
2022-08-26T00:05:48.528Z,3.97
2022-08-26T00:06:51.938Z,4.20
2022-08-26T00:07:54.952Z,4.45
2022-08-26T00:08:58.059Z,3.60
2022-08-26T00:10:00.891Z,4.25
2022-08-26T00:11:08.281Z,4.03
2022-08-26T00:12:12.182Z,4.07
2022-08-26T00:13:15.755Z,4.30
2022-08-26T00:14:30.781Z,3.70
2022-08-26T00:15:34.075Z,3.90
2022-08-26T00:16:37.812Z,3.70
2022-08-26T00:17:44.056Z,3.67
2022-08-26T00:18:47.004Z,3.83
2022-08-26T00:19:49.971Z,3.45
2022-08-26T00:20:55.696Z,4.28
2022-08-26T00:21:58.631Z,4.05
2022-08-26T00:23:02.972Z,3.95
2022-08-26T00:24:06.478Z,4.03
2022-08-26T00:25:10.534Z,3.90
2022-08-26T00:26:14.052Z,4.00
2022-08-26T00:27:17.161Z,4.10
2022-08-26T00:28:20.669Z,4.37
2022-08-26T00:29:24.529Z,4.57
2022-08-26T00:30:29.733Z,4.05
2022-08-26T00:31:33.754Z,3.95
2022-08-26T00:32:43.995Z,4.30
2022-08-26T00:33:49.560Z,4.10
2022-08-26T00:34:52.674Z,4.10
2022-08-26T00:35:55.599Z,4.15
2022-08-26T00:36:58.877Z,4.15
2022-08-26T00:38:02.758Z,4.28
2022-08-26T00:39:07.832Z,3.40
2022-08-26T00:40:20.709Z,3.80
2022-08-26T00:41:23.905Z,4.22
2022-08-26T00:42:27.974Z,4.05
2022-08-26T00:43:47.415Z,3.80
2022-08-26T00:44:51.806Z,3.95
2022-08-26T00:46:22.007Z,4.15
2022-08-26T00:47:34.434Z,3.75
2022-08-26T00:48:40.253Z,3.55
2022-08-26T00:49:47.837Z,3.65
2022-08-26T00:50:56.123Z,4.07
2022-08-26T00:52:03.661Z,4.40
2022-08-26T00:53:24.104Z,3.92
2022-08-26T00:54:34.029Z,3.70
2022-08-26T00:55:41.018Z,3.65
2022-08-26T00:56:53.307Z,4.05
2022-08-26T00:57:56.386Z,3.85
2022-08-26T00:59:02.923Z,3.72
2022-08-26T01:00:12.926Z,4.25
2022-08-26T01:01:22.903Z,4.12
2022-08-26T01:02:26.601Z,4.00
2022-08-26T01:03:34.971Z,3.92
2022-08-26T01:04:39.379Z,3.92
2022-08-26T01:05:42.775Z,3.58
2022-08-26T01:06:48.810Z,4.05
2022-08-26T01:07:52.264Z,4.12
2022-08-26T01:08:55.281Z,4.32
2022-08-26T01:10:00.596Z,4.35
2022-08-26T01:11:06.081Z,3.70
2022-08-26T01:12:09.927Z,4.15
2022-08-26T01:13:14.290Z,4.43
2022-08-26T01:14:20.271Z,4.07
2022-08-26T01:15:28.122Z,4.05
2022-08-26T01:16:36.756Z,3.83
2022-08-26T01:17:40.058Z,3.85
2022-08-26T01:18:44.593Z,4.37
2022-08-26T01:19:53.271Z,4.50
2022-08-26T01:21:14.787Z,3.72
2022-08-26T01:22:26.733Z,4.22
2022-08-26T01:23:36.454Z,3.80
2022-08-26T01:24:41.355Z,3.75
2022-08-26T01:25:49.239Z,4.00
2022-08-26T01:26:53.152Z,4.28
2022-08-26T01:27:58.864Z,3.35
2022-08-26T01:29:04.654Z,3.80
2022-08-26T01:30:08.191Z,4.22
2022-08-26T01:31:15.310Z,3.70
2022-08-26T01:32:23.242Z,3.92
2022-08-26T01:33:42.379Z,4.05
2022-08-26T01:34:47.072Z,4.10
2022-08-26T01:35:50.564Z,3.65
2022-08-26T01:37:15.600Z,3.78
2022-08-26T01:38:19.312Z,3.83
2022-08-26T01:39:22.315Z,4.03
2022-08-26T01:40:32.229Z,3.78
2022-08-26T01:41:36.707Z,3.70
2022-08-26T01:42:41.410Z,3.78
2022-08-26T01:43:47.026Z,3.92
2022-08-26T01:45:04.057Z,3.90
2022-08-26T01:46:07.598Z,4.12
2022-08-26T01:47:17.997Z,4.03
2022-08-26T01:48:26.468Z,3.85
2022-08-26T01:49:29.903Z,4.80
2022-08-26T01:50:40.923Z,4.15
2022-08-26T01:51:48.543Z,4.00
2022-08-26T01:52:54.788Z,4.65
2022-08-26T01:53:58.689Z,4.03
2022-08-26T01:55:02.881Z,3.97
2022-08-26T01:56:07.391Z,3.87
2022-08-26T01:57:10.778Z,3.70
2022-08-26T01:58:18.827Z,4.53
2022-08-26T01:59:24.778Z,4.43
2022-08-26T02:00:27.783Z,4.00
2022-08-26T02:01:31.850Z,4.05
2022-08-26T02:02:34.925Z,4.12
2022-08-26T02:03:55.982Z,4.00
2022-08-26T02:05:04.680Z,4.12
2022-08-26T02:06:09.361Z,3.90
2022-08-26T02:07:13.232Z,4.10
2022-08-26T02:08:24.903Z,3.87
2022-08-26T02:09:28.611Z,3.15
2022-08-26T02:10:33.884Z,4.25
2022-08-26T02:11:38.981Z,4.40
2022-08-26T02:12:42.759Z,3.95
2022-08-26T02:14:07.780Z,3.85
2022-08-26T02:15:13.106Z,3.87
2022-08-26T02:16:19.246Z,3.78
2022-08-26T02:17:35.362Z,3.85
2022-08-26T02:18:42.024Z,4.25
2022-08-26T02:19:48.809Z,3.80
2022-08-26T02:20:54.738Z,4.03
2022-08-26T02:22:05.237Z,3.25
2022-08-26T02:23:09.098Z,4.00
2022-08-26T02:24:17.294Z,4.32
2022-08-26T02:25:52.790Z,4.10
2022-08-26T02:26:57.945Z,4.20
2022-08-26T02:28:01.562Z,4.43
2022-08-26T02:29:13.875Z,3.47
2022-08-26T02:30:28.502Z,3.65
2022-08-26T02:31:31.630Z,3.50
2022-08-26T02:32:35.177Z,3.67
2022-08-26T02:33:38.453Z,3.60
2022-08-26T02:34:52.963Z,4.20
2022-08-26T02:35:55.845Z,4.72
2022-08-26T02:37:05.685Z,3.70
2022-08-26T02:38:10.060Z,3.65
2022-08-26T02:39:16.952Z,3.50
2022-08-26T02:40:29.193Z,4.20
2022-08-26T02:41:32.489Z,3.95
2022-08-26T02:42:36.053Z,4.78
2022-08-26T02:43:40.550Z,4.18
2022-08-26T02:44:43.485Z,4.47
2022-08-26T02:45:47.450Z,4.28
2022-08-26T02:46:51.052Z,3.90
2022-08-26T02:47:59.629Z,3.83
2022-08-26T02:49:02.619Z,3.90
2022-08-26T02:50:06.981Z,3.95
2022-08-26T02:51:11.643Z,3.70
2022-08-26T02:52:16.460Z,3.65
2022-08-26T02:53:25.053Z,4.05
2022-08-26T02:54:28.530Z,3.85
2022-08-26T02:55:32.356Z,3.90
2022-08-26T02:56:35.819Z,3.97
2022-08-26T02:57:38.736Z,3.70
2022-08-26T02:58:41.558Z,3.33
2022-08-26T02:59:44.978Z,3.90
2022-08-26T03:00:49.296Z,4.07
2022-08-26T03:01:56.407Z,4.00
2022-08-26T03:02:59.971Z,3.78
2022-08-26T03:04:04.650Z,3.70
2022-08-26T03:05:09.175Z,3.53
2022-08-26T03:06:12.102Z,3.65
2022-08-26T03:07:15.165Z,3.30
2022-08-26T03:08:19.069Z,3.92
2022-08-26T03:09:22.962Z,4.00
2022-08-26T03:10:26.582Z,3.47
2022-08-26T03:11:33.132Z,3.97
2022-08-26T03:12:37.309Z,3.65
2022-08-26T03:13:40.452Z,3.58
2022-08-26T03:14:44.411Z,3.87
2022-08-26T03:15:47.710Z,4.30
2022-08-26T03:16:54.400Z,3.85
2022-08-26T03:17:57.239Z,3.42
2022-08-26T03:19:01.158Z,3.47
2022-08-26T03:20:09.945Z,3.42
2022-08-26T03:21:15.479Z,3.72
2022-08-26T03:22:18.303Z,3.78
2022-08-26T03:23:23.754Z,3.58
2022-08-26T03:24:27.089Z,4.18
2022-08-26T03:25:30.220Z,4.20
2022-08-26T03:26:33.228Z,3.80
2022-08-26T03:27:36.228Z,4.05
2022-08-26T03:28:59.805Z,3.47
2022-08-26T03:30:21.032Z,3.83
2022-08-26T03:31:24.544Z,3.33
2022-08-26T03:32:27.602Z,4.40
2022-08-26T03:33:35.021Z,3.92
2022-08-26T03:34:38.161Z,4.22
2022-08-26T03:35:43.746Z,3.90
2022-08-26T03:36:50.445Z,3.83
2022-08-26T03:37:54.014Z,3.40
2022-08-26T03:38:57.320Z,3.65
2022-08-26T03:40:01.362Z,4.15
2022-08-26T03:41:04.257Z,4.20
2022-08-26T03:42:10.801Z,4.25
2022-08-26T03:43:16.289Z,3.72
2022-08-26T03:44:19.369Z,3.53
2022-08-26T03:45:26.037Z,3.95
2022-08-26T03:46:29.347Z,3.67
2022-08-26T03:47:32.855Z,3.90
2022-08-26T03:48:36.089Z,3.53
2022-08-26T03:49:38.898Z,4.00
2022-08-26T03:50:42.616Z,3.58
2022-08-26T03:51:45.958Z,4.07
2022-08-26T03:52:50.051Z,4.72
2022-08-26T03:53:58.944Z,3.95
2022-08-26T03:55:01.820Z,4.00
2022-08-26T03:56:06.836Z,3.85
2022-08-26T03:57:09.639Z,3.87
2022-08-26T03:58:12.471Z,3.83
2022-08-26T03:59:15.306Z,3.97
2022-08-26T04:00:19.942Z,3.97
2022-08-26T04:01:22.710Z,3.58
2022-08-26T04:02:30.179Z,4.22
2022-08-26T04:03:52.134Z,4.10
2022-08-26T04:04:55.033Z,3.45
2022-08-26T04:06:01.972Z,3.67
2022-08-26T04:07:05.338Z,3.85
2022-08-26T04:08:08.139Z,3.53
2022-08-26T04:09:19.935Z,3.70
2022-08-26T04:10:29.031Z,4.00
2022-08-26T04:11:34.456Z,4.32
2022-08-26T04:12:39.191Z,4.15
2022-08-26T04:13:42.210Z,4.25
2022-08-26T04:14:45.162Z,3.53
2022-08-26T04:15:48.142Z,3.90
2022-08-26T04:16:52.123Z,4.00
2022-08-26T04:17:56.082Z,3.60
2022-08-26T04:19:00.997Z,3.78
2022-08-26T04:20:06.659Z,3.97
2022-08-26T04:21:10.167Z,3.97
2022-08-26T04:22:16.258Z,3.87
2022-08-26T04:24:30.533Z,4.28
2022-08-26T04:25:33.450Z,3.53
2022-08-26T04:26:43.653Z,3.85
2022-08-26T04:27:46.720Z,4.18
2022-08-26T04:28:52.881Z,3.42
2022-08-26T04:29:55.753Z,3.60
2022-08-26T04:30:58.640Z,3.20
2022-08-26T04:32:03.380Z,3.80
2022-08-26T04:33:12.877Z,4.05
2022-08-26T04:34:17.817Z,4.85
2022-08-26T04:35:25.714Z,3.47
2022-08-26T04:36:29.381Z,3.92
2022-08-26T04:37:33.759Z,3.65
2022-08-26T04:38:36.836Z,4.18
2022-08-26T04:39:40.245Z,3.55
2022-08-26T04:40:46.909Z,4.25
2022-08-26T04:41:50.905Z,3.72
2022-08-26T04:42:54.447Z,4.07
2022-08-26T04:43:57.527Z,3.72
2022-08-26T04:45:00.526Z,3.83
2022-08-26T04:46:05.280Z,3.83
2022-08-26T04:47:08.343Z,4.05
2022-08-26T04:48:12.181Z,3.75
2022-08-26T04:49:19.859Z,3.47
2022-08-26T04:50:24.028Z,4.20
2022-08-26T04:51:28.276Z,4.25
2022-08-26T04:52:31.286Z,4.15
2022-08-26T04:53:34.329Z,3.75
2022-08-26T04:54:37.285Z,3.70
2022-08-26T04:55:42.704Z,3.58
2022-08-26T04:56:50.057Z,3.97
2022-08-26T04:57:53.895Z,3.90
2022-08-26T04:58:56.823Z,4.00
2022-08-26T04:59:59.845Z,3.97
2022-08-26T05:01:02.991Z,4.45
2022-08-26T05:02:07.675Z,4.12
2022-08-26T05:03:12.189Z,3.78
2022-08-26T05:04:18.833Z,4.05
2022-08-26T05:05:22.115Z,4.45
2022-08-26T05:06:25.849Z,3.53
2022-08-26T05:07:28.829Z,4.22
2022-08-26T05:08:31.743Z,3.83
2022-08-26T05:09:34.938Z,4.47
2022-08-26T05:10:43.503Z,3.97
2022-08-26T05:11:48.615Z,3.80
2022-08-26T05:12:55.006Z,3.80
2022-08-26T05:14:02.118Z,4.37
2022-08-26T05:15:06.354Z,3.87
2022-08-26T05:16:12.136Z,3.70
2022-08-26T05:17:15.286Z,3.72
2022-08-26T05:18:21.514Z,3.87
2022-08-26T05:19:25.776Z,3.92
2022-08-26T05:20:33.011Z,3.87
2022-08-26T05:21:36.200Z,3.60
2022-08-26T05:22:39.629Z,3.78
2022-08-26T05:23:43.375Z,4.20
2022-08-26T05:24:46.864Z,3.97
2022-08-26T05:25:55.842Z,3.53
2022-08-26T05:28:04.805Z,3.97
2022-08-26T05:29:08.792Z,4.28
2022-08-26T05:30:12.222Z,3.87
2022-08-26T05:31:19.336Z,4.00
2022-08-26T05:32:22.287Z,4.37
2022-08-26T05:33:25.109Z,4.50
2022-08-26T05:34:30.357Z,3.67
2022-08-26T05:35:34.518Z,3.58
2022-08-26T05:36:37.919Z,3.80
2022-08-26T05:37:43.983Z,4.80
2022-08-26T05:38:47.163Z,4.10
2022-08-26T05:39:51.426Z,4.20
2022-08-26T05:40:54.762Z,4.10
2022-08-26T05:41:57.624Z,4.25
2022-08-26T05:43:00.578Z,3.70
2022-08-26T05:44:08.602Z,3.58
2022-08-26T05:45:13.384Z,3.78
2022-08-26T05:46:16.339Z,3.50
2022-08-26T05:47:19.219Z,3.95
2022-08-26T05:48:24.249Z,4.05
2022-08-26T05:49:27.480Z,3.75
2022-08-26T05:50:30.410Z,4.00
2022-08-26T05:51:33.902Z,4.00
2022-08-26T05:52:36.704Z,3.92
2022-08-26T05:53:43.760Z,4.30
2022-08-26T05:54:57.371Z,4.28
2022-08-26T05:56:00.532Z,3.42
2022-08-26T05:57:03.511Z,4.05
2022-08-26T05:58:06.876Z,3.90
2022-08-26T05:59:14.694Z,4.07
2022-08-26T06:00:17.762Z,4.07
2022-08-26T06:01:24.171Z,3.70
2022-08-26T06:02:27.103Z,4.25
2022-08-26T06:03:31.931Z,4.25
2022-08-26T06:04:36.021Z,3.97
2022-08-26T06:05:42.542Z,3.83
2022-08-26T06:06:48.008Z,3.90
2022-08-26T06:08:09.378Z,3.78
2022-08-26T06:10:31.481Z,4.05
2022-08-26T06:11:35.099Z,3.80
2022-08-26T06:12:37.892Z,4.45
2022-08-26T06:13:41.353Z,3.67
2022-08-26T06:14:44.950Z,4.05
2022-08-26T06:15:56.169Z,4.37
2022-08-26T06:16:59.043Z,3.47
2022-08-26T06:18:01.832Z,3.83
2022-08-26T06:19:10.261Z,3.97
2022-08-26T06:20:14.048Z,4.05
2022-08-26T06:21:19.362Z,4.10
2022-08-26T06:22:41.101Z,3.92
2022-08-26T06:24:04.639Z,4.18
2022-08-26T06:25:26.791Z,3.75
2022-08-26T06:26:30.093Z,4.97
2022-08-26T06:27:34.756Z,9.15
2022-08-26T06:28:38.430Z,11.27
2022-08-26T06:29:41.943Z,13.82
2022-08-26T06:30:44.914Z,14.18
2022-08-26T06:31:47.992Z,8.02
2022-08-26T06:32:50.926Z,9.45
2022-08-26T06:33:56.731Z,7.57
2022-08-26T06:34:59.714Z,6.37
2022-08-26T06:36:05.214Z,6.82
2022-08-26T06:37:09.081Z,6.18
2022-08-26T06:38:12.267Z,6.85
2022-08-26T06:39:17.914Z,5.62
2022-08-26T06:40:23.051Z,5.45
2022-08-26T06:41:26.079Z,6.28
2022-08-26T06:42:28.980Z,6.40
2022-08-26T06:43:31.740Z,5.80
2022-08-26T06:44:36.042Z,5.05
2022-08-26T06:45:40.064Z,4.82
2022-08-26T06:46:44.728Z,6.15
2022-08-26T06:47:47.863Z,6.95
2022-08-26T06:48:54.440Z,6.75
2022-08-26T06:49:57.556Z,6.07
2022-08-26T06:51:22.309Z,5.78
2022-08-26T06:52:26.674Z,5.35
2022-08-26T06:53:29.576Z,6.97
2022-08-26T06:54:32.644Z,9.25
2022-08-26T06:55:43.627Z,4.30
2022-08-26T06:56:47.952Z,3.58
2022-08-26T06:57:50.968Z,4.12
2022-08-26T06:58:54.270Z,3.45
2022-08-26T06:59:58.910Z,3.92
2022-08-26T07:01:09.084Z,3.67
2022-08-26T07:02:15.336Z,3.70
2022-08-26T07:03:22.442Z,3.58
2022-08-26T07:04:27.956Z,3.92
2022-08-26T07:05:31.148Z,3.70
2022-08-26T07:06:40.038Z,3.90
2022-08-26T07:07:42.965Z,3.50
2022-08-26T07:08:47.464Z,3.75
2022-08-26T07:09:52.395Z,3.45
2022-08-26T07:10:55.930Z,3.72
2022-08-26T07:11:59.603Z,3.65
2022-08-26T07:13:02.552Z,3.83
2022-08-26T07:14:06.994Z,3.28
2022-08-26T07:15:10.550Z,3.20
2022-08-26T07:16:18.316Z,3.45
2022-08-26T07:17:21.218Z,4.40
2022-08-26T07:18:28.060Z,3.85
2022-08-26T07:19:31.902Z,3.17
2022-08-26T07:20:40.597Z,3.53
2022-08-26T07:21:45.974Z,3.45
2022-08-26T07:22:50.360Z,3.83
2022-08-26T07:23:58.707Z,3.22
2022-08-26T07:25:07.960Z,3.53
2022-08-26T07:26:16.545Z,3.42
2022-08-26T07:27:19.936Z,3.12
2022-08-26T07:28:23.939Z,3.65
2022-08-26T07:29:29.487Z,3.50
2022-08-26T07:30:32.435Z,3.83
2022-08-26T07:31:39.575Z,4.25
2022-08-26T07:32:45.882Z,3.50
2022-08-26T07:33:49.034Z,3.70
2022-08-26T07:34:54.312Z,4.15
2022-08-26T07:35:57.299Z,3.20
2022-08-26T07:37:00.726Z,3.40
2022-08-26T07:38:04.318Z,3.80
2022-08-26T07:39:08.043Z,3.50
2022-08-26T07:40:12.065Z,3.37
2022-08-26T07:41:17.760Z,3.47
2022-08-26T07:42:22.617Z,3.70
2022-08-26T07:43:27.036Z,3.45
2022-08-26T07:44:32.211Z,3.22
2022-08-26T07:45:35.179Z,3.80
2022-08-26T07:46:38.503Z,3.15
2022-08-26T07:47:41.639Z,3.75
2022-08-26T07:48:46.822Z,3.37
2022-08-26T07:49:52.873Z,3.83
2022-08-26T07:50:57.343Z,3.33
2022-08-26T07:52:01.208Z,3.50
2022-08-26T07:53:04.902Z,3.30
2022-08-26T07:54:07.969Z,3.22
2022-08-26T07:55:11.400Z,3.90
2022-08-26T07:56:14.464Z,3.70
2022-08-26T07:57:17.329Z,3.85
2022-08-26T07:58:21.987Z,4.45
2022-08-26T07:59:25.681Z,3.42
2022-08-26T08:00:29.825Z,4.30
2022-08-26T08:01:33.227Z,3.67
2022-08-26T08:02:37.129Z,4.25
2022-08-26T08:03:40.785Z,3.72
2022-08-26T08:04:44.169Z,3.55
2022-08-26T08:05:47.290Z,3.67
2022-08-26T08:06:50.506Z,3.60
2022-08-26T08:07:53.685Z,3.83
2022-08-26T08:09:16.491Z,3.60
2022-08-26T08:10:22.828Z,3.53
2022-08-26T08:11:31.421Z,3.72
2022-08-26T08:12:34.508Z,3.58
2022-08-26T08:13:38.599Z,3.78
2022-08-26T08:14:45.398Z,3.30
2022-08-26T08:15:48.273Z,3.70
2022-08-26T08:16:54.759Z,3.83
2022-08-26T08:18:00.699Z,3.85
2022-08-26T08:19:04.015Z,3.80
2022-08-26T08:20:08.943Z,4.00
2022-08-26T08:21:21.697Z,3.67
2022-08-26T08:22:25.662Z,4.10
2022-08-26T08:23:31.829Z,3.75
2022-08-26T08:24:35.525Z,3.58
2022-08-26T08:25:38.524Z,4.00
2022-08-26T08:26:41.974Z,3.50
2022-08-26T08:27:45.834Z,4.03
2022-08-26T08:28:48.842Z,3.70
2022-08-26T08:29:55.025Z,4.28
2022-08-26T08:30:58.427Z,4.05
2022-08-26T08:32:03.326Z,3.92
2022-08-26T08:33:07.822Z,3.75
2022-08-26T08:34:10.789Z,3.83
2022-08-26T08:35:17.574Z,3.83
2022-08-26T08:36:20.581Z,3.87
2022-08-26T08:37:23.731Z,3.45
2022-08-26T08:38:27.482Z,4.03
2022-08-26T08:39:32.444Z,3.78
2022-08-26T08:40:41.838Z,3.92
2022-08-26T08:41:59.661Z,3.72
2022-08-26T08:43:11.056Z,3.97
2022-08-26T08:44:20.443Z,3.90
2022-08-26T08:45:35.911Z,3.70
2022-08-26T08:46:42.646Z,3.83
2022-08-26T08:47:56.886Z,3.75
2022-08-26T08:49:00.365Z,3.83
2022-08-26T08:50:22.060Z,4.37
2022-08-26T08:51:40.393Z,3.92
2022-08-26T08:52:47.582Z,3.90
2022-08-26T08:53:54.605Z,4.05
2022-08-26T08:54:58.445Z,4.10
2022-08-26T08:56:24.512Z,4.12
2022-08-26T08:57:39.356Z,4.07
2022-08-26T08:59:16.502Z,4.22
2022-08-26T09:00:30.377Z,4.03
2022-08-26T09:01:45.964Z,3.92
2022-08-26T09:02:59.987Z,4.03
2022-08-26T09:04:25.260Z,3.83
2022-08-26T09:05:36.144Z,4.00
2022-08-26T09:06:41.084Z,4.07
2022-08-26T09:07:52.663Z,3.85
2022-08-26T09:08:57.594Z,4.37
2022-08-26T09:10:20.546Z,4.45
2022-08-26T09:11:23.712Z,4.10
2022-08-26T09:12:31.415Z,4.05
2022-08-26T09:13:34.509Z,3.70
2022-08-26T09:14:38.752Z,3.90
2022-08-26T09:15:54.286Z,4.05
2022-08-26T09:17:35.752Z,4.45
2022-08-26T09:19:07.685Z,4.10
2022-08-26T09:20:34.089Z,4.55
2022-08-26T09:21:37.841Z,4.22
2022-08-26T09:22:44.240Z,4.05
2022-08-26T09:23:49.638Z,4.40
2022-08-26T09:24:53.139Z,3.95
2022-08-26T09:26:03.139Z,3.83
2022-08-26T09:28:19.239Z,3.85
2022-08-26T09:29:28.023Z,4.12
2022-08-26T09:30:38.252Z,3.92
2022-08-26T09:31:41.691Z,4.62
2022-08-26T09:33:06.621Z,4.20
2022-08-26T09:34:28.063Z,3.70
2022-08-26T09:35:38.124Z,4.35
2022-08-26T09:36:45.100Z,4.25
2022-08-26T09:38:53.933Z,3.87
2022-08-26T09:40:23.637Z,4.72
2022-08-26T09:41:33.279Z,4.15
2022-08-26T09:42:36.252Z,3.97
2022-08-26T09:43:39.005Z,4.07
2022-08-26T09:45:08.581Z,3.70
2022-08-26T09:46:18.768Z,3.95
2022-08-26T09:47:30.423Z,3.95
2022-08-26T09:48:37.484Z,4.50
2022-08-26T09:49:46.148Z,3.83
2022-08-26T09:51:03.771Z,3.65
2022-08-26T09:52:23.751Z,4.10
2022-08-26T09:53:31.173Z,4.50
2022-08-26T09:54:34.886Z,4.28
2022-08-26T09:55:42.404Z,4.15
2022-08-26T09:56:46.663Z,3.90
2022-08-26T09:57:52.681Z,4.10
2022-08-26T09:58:57.411Z,3.83
2022-08-26T10:00:01.678Z,3.72
2022-08-26T10:01:08.772Z,3.75
2022-08-26T10:02:36.198Z,4.25
2022-08-26T10:03:40.138Z,4.12
2022-08-26T10:04:51.893Z,4.18
2022-08-26T10:06:03.628Z,3.65
2022-08-26T10:07:10.227Z,4.07
2022-08-26T10:08:42.082Z,4.62
2022-08-26T10:09:48.404Z,4.05
2022-08-26T10:10:57.770Z,3.95
2022-08-26T10:12:08.334Z,3.70
2022-08-26T10:13:18.259Z,4.05
2022-08-26T10:14:33.789Z,3.95
2022-08-26T10:15:53.113Z,4.05
2022-08-26T10:17:01.785Z,4.47
2022-08-26T10:18:14.577Z,4.00
2022-08-26T10:19:25.622Z,4.00
2022-08-26T10:21:12.771Z,3.83
2022-08-26T10:22:25.197Z,3.87
2022-08-26T10:23:32.695Z,3.95
2022-08-26T10:24:42.086Z,3.60
2022-08-26T10:25:55.220Z,3.50
2022-08-26T10:27:11.385Z,3.55
2022-08-26T10:28:30.953Z,4.25
2022-08-26T10:29:40.528Z,4.32
2022-08-26T10:30:51.504Z,3.75
2022-08-26T10:32:03.432Z,3.83
2022-08-26T10:33:13.598Z,3.67
2022-08-26T10:34:18.301Z,3.50
2022-08-26T10:35:24.570Z,4.12
2022-08-26T10:38:17.431Z,3.83
2022-08-26T10:39:26.892Z,3.20
2022-08-26T10:41:02.839Z,3.50
2022-08-26T10:42:28.853Z,3.28
2022-08-26T10:43:41.851Z,3.87
2022-08-26T10:44:48.500Z,3.20
2022-08-26T10:46:04.905Z,3.25
2022-08-26T10:47:16.995Z,3.17
2022-08-26T10:48:42.954Z,3.47
2022-08-26T10:49:49.738Z,3.90
2022-08-26T10:50:53.091Z,3.58
2022-08-26T10:51:58.732Z,3.85
2022-08-26T10:53:25.283Z,3.37
2022-08-26T10:54:43.619Z,3.30
2022-08-26T10:56:15.855Z,3.12
2022-08-26T10:57:48.343Z,3.50
2022-08-26T10:58:58.887Z,2.85
2022-08-26T11:00:41.521Z,2.85
2022-08-26T11:01:52.783Z,2.53
2022-08-26T11:03:03.522Z,3.65
2022-08-26T11:04:28.572Z,3.65
2022-08-26T11:05:31.633Z,3.70
2022-08-26T11:06:37.053Z,3.90
2022-08-26T11:07:46.299Z,2.92
2022-08-26T11:08:52.926Z,3.85
2022-08-26T11:09:56.727Z,3.15
2022-08-26T11:11:00.701Z,3.65
2022-08-26T11:12:09.976Z,3.65
2022-08-26T11:13:13.941Z,3.15
2022-08-26T11:14:41.119Z,3.12
2022-08-26T11:15:54.976Z,3.08
2022-08-26T11:16:59.138Z,3.20
2022-08-26T11:18:05.866Z,3.75
2022-08-26T11:19:12.034Z,3.33
2022-08-26T11:20:23.802Z,2.95
2022-08-26T11:21:49.535Z,2.92
2022-08-26T11:22:55.729Z,3.60
2022-08-26T11:23:58.612Z,3.92
2022-08-26T11:25:09.500Z,3.33
2022-08-26T11:26:30.052Z,3.10
2022-08-26T11:27:47.195Z,3.20
2022-08-26T11:28:54.318Z,2.90
2022-08-26T11:30:05.481Z,3.00
2022-08-26T11:31:10.763Z,2.97
2022-08-26T11:32:48.720Z,3.37
2022-08-26T11:33:57.399Z,3.45
2022-08-26T11:35:04.822Z,3.10
2022-08-26T11:36:12.205Z,3.08
2022-08-26T11:37:17.812Z,3.30
2022-08-26T11:38:28.772Z,3.47
2022-08-26T11:40:09.503Z,2.75
2022-08-26T11:41:22.426Z,3.37
2022-08-26T11:42:43.045Z,3.00
2022-08-26T11:43:49.540Z,3.05
2022-08-26T11:44:58.106Z,2.70
2022-08-26T11:46:06.184Z,3.22
2022-08-26T11:47:17.919Z,2.87
2022-08-26T11:48:30.831Z,3.17
2022-08-26T11:49:34.022Z,3.00
2022-08-26T11:50:37.692Z,2.90
2022-08-26T11:51:42.554Z,3.00
2022-08-26T11:53:02.426Z,3.20
2022-08-26T11:54:10.983Z,3.25
2022-08-26T11:55:15.335Z,3.17
2022-08-26T11:56:24.801Z,3.35
2022-08-26T11:57:29.867Z,3.50
2022-08-26T11:58:33.356Z,3.40
2022-08-26T11:59:41.028Z,3.20
2022-08-26T12:00:45.605Z,3.60
2022-08-26T12:01:51.092Z,3.55
2022-08-26T12:02:55.760Z,3.75
2022-08-26T12:04:04.198Z,3.40
2022-08-26T12:05:08.807Z,3.97
2022-08-26T12:06:29.027Z,3.50
2022-08-26T12:07:34.077Z,3.33
2022-08-26T12:08:44.340Z,3.17
2022-08-26T12:10:02.491Z,3.40
2022-08-26T12:11:09.781Z,3.65
2022-08-26T12:12:22.411Z,3.70
2022-08-26T12:13:26.637Z,3.20
2022-08-26T12:14:29.601Z,3.00
2022-08-26T12:15:35.179Z,3.35
2022-08-26T12:16:40.010Z,3.50
2022-08-26T12:17:44.720Z,3.85
2022-08-26T12:18:49.782Z,3.20
2022-08-26T12:19:52.741Z,3.80
2022-08-26T12:20:56.602Z,4.12
2022-08-26T12:22:15.823Z,3.85
2022-08-26T12:23:23.839Z,3.75
2022-08-26T12:24:26.953Z,3.62
2022-08-26T12:25:32.937Z,3.75
2022-08-26T12:26:39.869Z,3.42
2022-08-26T12:27:44.923Z,3.75
2022-08-26T12:28:55.137Z,3.90
2022-08-26T12:30:08.735Z,2.87
2022-08-26T12:31:11.803Z,3.75
2022-08-26T12:32:18.741Z,3.53
2022-08-26T12:33:23.318Z,3.47
2022-08-26T12:34:28.627Z,3.83
2022-08-26T12:35:33.783Z,3.78
2022-08-26T12:36:43.261Z,3.83
2022-08-26T12:37:53.546Z,3.30
2022-08-26T12:38:58.443Z,3.65
2022-08-26T12:40:40.273Z,3.67
2022-08-26T12:41:50.751Z,3.80
2022-08-26T12:42:54.269Z,3.95
2022-08-26T12:43:57.466Z,3.60
2022-08-26T12:45:04.334Z,3.30
2022-08-26T12:46:11.523Z,3.62
2022-08-26T12:47:41.799Z,4.00
2022-08-26T12:48:49.708Z,4.00
2022-08-26T12:50:07.274Z,3.33
2022-08-26T12:51:26.303Z,3.60
2022-08-26T12:52:31.758Z,3.35
2022-08-26T12:53:42.233Z,3.85
2022-08-26T12:54:59.684Z,3.37
2022-08-26T12:56:39.443Z,4.03
2022-08-26T12:57:42.403Z,3.67
2022-08-26T12:59:00.207Z,3.30
2022-08-26T13:00:29.517Z,3.72
2022-08-26T13:01:44.809Z,3.60
2022-08-26T13:02:48.028Z,3.75
2022-08-26T13:03:52.096Z,3.50
2022-08-26T13:05:00.935Z,3.92
2022-08-26T13:06:23.979Z,3.30
2022-08-26T13:07:27.338Z,3.92
2022-08-26T13:08:31.437Z,2.92
2022-08-26T13:09:36.720Z,3.75
2022-08-26T13:10:43.902Z,4.32
2022-08-26T13:11:46.896Z,3.28
2022-08-26T13:12:50.014Z,3.70
2022-08-26T13:13:59.375Z,3.45
2022-08-26T13:15:04.102Z,3.15
2022-08-26T13:16:08.015Z,3.53
2022-08-26T13:17:10.948Z,3.80
2022-08-26T13:18:13.820Z,4.07
2022-08-26T13:19:22.775Z,4.25
2022-08-26T13:20:25.824Z,3.97
2022-08-26T13:21:37.712Z,3.78
2022-08-26T13:22:44.213Z,3.35
2022-08-26T13:23:51.470Z,4.18
2022-08-26T13:24:56.890Z,3.53
2022-08-26T13:26:00.171Z,3.55
2022-08-26T13:27:05.484Z,3.53
2022-08-26T13:28:08.531Z,3.95
2022-08-26T13:29:12.765Z,3.67
2022-08-26T13:30:15.597Z,4.30
2022-08-26T13:31:20.762Z,3.67
2022-08-26T13:32:29.907Z,3.45
2022-08-26T13:33:33.424Z,3.62
2022-08-26T13:34:38.779Z,3.75
2022-08-26T13:35:41.784Z,3.83
2022-08-26T13:36:46.013Z,3.75
2022-08-26T13:37:48.897Z,4.00
2022-08-26T13:38:51.984Z,3.20
2022-08-26T13:39:55.983Z,3.80
2022-08-26T13:41:00.131Z,3.72
2022-08-26T13:42:03.078Z,3.70
2022-08-26T13:43:05.994Z,3.65
2022-08-26T13:44:09.704Z,3.90
2022-08-26T13:45:12.728Z,3.58
2022-08-26T13:46:16.399Z,3.62
2022-08-26T13:47:21.154Z,3.90
2022-08-26T13:48:24.182Z,4.07
2022-08-26T13:49:27.136Z,3.70
2022-08-26T13:50:30.171Z,3.75
2022-08-26T13:51:33.546Z,3.42
2022-08-26T13:52:36.492Z,3.70
2022-08-26T13:53:39.633Z,3.83
2022-08-26T13:54:44.982Z,3.47
2022-08-26T13:55:48.186Z,3.40
2022-08-26T13:56:51.960Z,3.90
2022-08-26T13:57:56.524Z,3.55
2022-08-26T13:59:01.188Z,3.87
2022-08-26T14:00:05.262Z,3.60
2022-08-26T14:01:09.413Z,3.83
2022-08-26T14:02:13.265Z,3.90
2022-08-26T14:03:16.330Z,4.30
2022-08-26T14:04:23.272Z,3.55
2022-08-26T14:05:31.757Z,3.70
2022-08-26T14:06:35.389Z,3.50
2022-08-26T14:07:38.645Z,4.03
2022-08-26T14:08:43.248Z,4.55
2022-08-26T14:09:47.527Z,3.37
2022-08-26T14:10:50.694Z,3.58
2022-08-26T14:11:54.912Z,3.55
2022-08-26T14:12:58.341Z,3.72
2022-08-26T14:14:01.517Z,4.05
2022-08-26T14:15:04.854Z,3.78
2022-08-26T14:16:10.927Z,3.60
2022-08-26T14:17:21.342Z,3.65
2022-08-26T14:18:32.285Z,3.20
2022-08-26T14:19:35.681Z,3.62
2022-08-26T14:20:39.691Z,3.75
2022-08-26T14:21:46.297Z,3.75
2022-08-26T14:23:12.535Z,3.75
2022-08-26T14:24:16.315Z,3.80
2022-08-26T14:25:19.477Z,3.45
2022-08-26T14:26:29.164Z,3.90
2022-08-26T14:27:35.181Z,3.53
2022-08-26T14:28:40.216Z,3.60
2022-08-26T14:29:47.270Z,3.62
2022-08-26T14:30:57.795Z,3.35
2022-08-26T14:32:07.130Z,4.03
2022-08-26T14:33:15.177Z,3.78
2022-08-26T14:34:18.244Z,3.67
2022-08-26T14:35:25.659Z,3.10
2022-08-26T14:36:28.788Z,3.55
2022-08-26T14:37:32.220Z,3.55
2022-08-26T14:38:35.090Z,3.92
2022-08-26T14:39:38.422Z,3.50
2022-08-26T14:40:45.010Z,3.40
2022-08-26T14:41:55.016Z,3.55
2022-08-26T14:42:59.601Z,3.60
2022-08-26T14:44:06.481Z,3.47
2022-08-26T14:45:13.632Z,3.50
2022-08-26T14:46:18.601Z,3.78
2022-08-26T14:47:25.310Z,3.30
2022-08-26T14:48:28.375Z,3.22
2022-08-26T14:49:31.986Z,3.58
2022-08-26T14:50:34.918Z,3.40
2022-08-26T14:51:38.331Z,3.37
2022-08-26T14:53:00.740Z,3.03
2022-08-26T14:54:12.624Z,3.03
2022-08-26T14:55:15.733Z,3.35
2022-08-26T14:56:19.760Z,2.90
2022-08-26T14:57:26.492Z,3.05
2022-08-26T14:58:35.111Z,3.53
2022-08-26T14:59:50.017Z,3.62
2022-08-26T15:00:54.228Z,3.50
2022-08-26T15:01:59.232Z,3.53
2022-08-26T15:03:02.416Z,3.10
2022-08-26T15:04:05.740Z,3.42